Time;durP1;ratioP1;P1;durP2;ratioP2;P2;SDS_P1;SDS_P2;PMS_P1;PMS_P2;Temp;Humidity;BMP_temperature;BMP_pressure;BME280_temperature;BME280_humidity;BME280_pressure;Samples;Min_cycle;Max_cycle;Signal;HPM_P1;HPM_P2
2022/09/14 03:02:00;;;;;;;;;;;23.80;48.10;;;;;;5224316;23;45539;-65
2022/09/14 03:04:26;;;;;;;;;;;23.80;48.10;;;;;;4954900;28;45252;-65
2022/09/14 03:06:51;;;;;;;;;;;23.80;48.10;;;;;;4941690;28;45648;-63
2022/09/14 03:09:17;;;;;;;;;;;23.80;48.10;;;;;;4948913;28;45834;-65
2022/09/14 03:11:42;;;;;;;;;;;23.70;48.00;;;;;;4932050;28;45606;-68
2022/09/14 03:14:11;;;;;;;;;;;23.80;48.00;;;;;;4912051;28;46575;-65
2022/09/14 03:16:36;;;;;;;;;;;23.80;48.10;;;;;;4931871;28;44943;-66
2022/09/14 03:19:03;;;;;;;;;;;23.80;48.10;;;;;;4912611;28;44784;-66
2022/09/14 03:21:28;;;;;;;;;;;23.80;48.60;;;;;;4912784;28;44957;-64
2022/09/14 03:23:54;;;;;;;;;;;23.70;47.90;;;;;;4932754;28;47425;-64
2022/09/14 03:26:20;;;;;;;;;;;23.80;47.90;;;;;;4932077;28;45434;-65
2022/09/14 03:28:56;;;;;;;;;;;23.80;47.90;;;;;;4930818;28;45284;-66
2022/09/14 03:31:21;;;;;;;;;;;23.80;47.90;;;;;;4927856;28;45550;-66
2022/09/14 03:33:50;;;;;;;;;;;23.80;47.90;;;;;;4931379;28;46591;-64
2022/09/14 03:36:17;;;;;;;;;;;23.80;47.90;;;;;;4930915;28;44843;-66
2022/09/14 03:38:45;;;;;;;;;;;23.80;47.90;;;;;;4933612;28;45573;-64
2022/09/14 03:41:11;;;;;;;;;;;23.80;47.80;;;;;;4919523;28;46911;-64
2022/09/14 03:43:36;;;;;;;;;;;23.80;47.90;;;;;;4944488;28;45433;-66
2022/09/14 03:46:06;;;;;;;;;;;23.80;47.90;;;;;;4936102;28;45420;-65
2022/09/14 03:48:31;;;;;;;;;;;23.80;47.90;;;;;;4942658;28;44700;-65
2022/09/14 03:50:59;;;;;;;;;;;23.80;47.90;;;;;;4935975;28;45590;-66
2022/09/14 03:53:24;;;;;;;;;;;23.70;47.90;;;;;;4938130;28;45655;-64
2022/09/14 03:55:50;;;;;;;;;;;23.80;48.10;;;;;;4920033;28;44786;-64
2022/09/14 03:58:15;;;;;;;;;;;23.70;48.10;;;;;;4937706;28;45413;-65
2022/09/14 04:00:41;;;;;;;;;;;23.80;48.20;;;;;;4933805;28;45486;-68
2022/09/14 04:03:06;;;;;;;;;;;23.80;48.10;;;;;;4938232;28;45576;-65
2022/09/14 04:05:32;;;;;;;;;;;23.80;48.10;;;;;;4933285;28;45397;-65
2022/09/14 04:07:57;;;;;;;;;;;23.70;48.10;;;;;;4921350;28;45245;-66
2022/09/14 04:10:23;;;;;;;;;;;23.80;48.30;;;;;;4937339;28;45221;-64
2022/09/14 04:12:48;;;;;;;;;;;23.70;48.30;;;;;;4937277;28;46952;-63
2022/09/14 04:15:14;;;;;;;;;;;23.70;48.20;;;;;;4939343;28;46004;-68
2022/09/14 04:17:39;;;;;;;;;;;23.70;48.10;;;;;;4935372;28;45516;-63
2022/09/14 04:20:05;;;;;;;;;;;23.70;48.00;;;;;;4939204;28;45528;-65
2022/09/14 04:22:30;;;;;;;;;;;23.70;48.00;;;;;;4938095;28;47059;-64
2022/09/14 04:24:56;;;;;;;;;;;23.70;48.10;;;;;;4935901;28;45132;-66
2022/09/14 04:27:22;;;;;;;;;;;23.70;48.20;;;;;;4940254;28;45251;-64
2022/09/14 04:29:48;;;;;;;;;;;23.70;48.20;;;;;;4940865;28;45299;-64
2022/09/14 04:32:14;;;;;;;;;;;23.70;48.30;;;;;;4936451;28;46683;-65
2022/09/14 04:34:39;;;;;;;;;;;23.70;48.20;;;;;;4922010;28;45205;-65
2022/09/14 04:37:05;;;;;;;;;;;23.70;48.30;;;;;;4936239;28;44878;-66
2022/09/14 04:39:30;;;;;;;;;;;23.70;48.30;;;;;;4939878;28;45676;-64
2022/09/14 04:41:55;;;;;;;;;;;23.70;48.40;;;;;;4939177;28;46101;-63
2022/09/14 04:44:21;;;;;;;;;;;23.70;48.40;;;;;;4940329;28;45215;-67
2022/09/14 04:46:46;;;;;;;;;;;23.70;48.40;;;;;;4939808;28;45475;-64
2022/09/14 04:49:12;;;;;;;;;;;23.70;48.50;;;;;;4938624;28;45197;-64
2022/09/14 04:51:38;;;;;;;;;;;23.70;48.60;;;;;;4934893;28;45296;-67
2022/09/14 04:54:04;;;;;;;;;;;23.70;48.40;;;;;;4938069;28;45193;-65
2022/09/14 04:56:30;;;;;;;;;;;23.70;48.40;;;;;;4941510;28;44876;-64
2022/09/14 04:58:57;;;;;;;;;;;23.70;48.40;;;;;;4925416;28;45351;-64
2022/09/14 05:01:24;;;;;;;;;;;23.70;48.40;;;;;;4925169;28;46172;-64
2022/09/14 05:03:49;;;;;;;;;;;23.70;48.40;;;;;;4938125;28;45277;-63
2022/09/14 05:06:18;;;;;;;;;;;23.70;48.40;;;;;;4923383;28;44768;-68
2022/09/14 05:08:44;;;;;;;;;;;23.70;48.40;;;;;;4938738;28;44738;-64
2022/09/14 05:11:11;;;;;;;;;;;23.70;48.30;;;;;;4938289;28;47204;-64
2022/09/14 05:13:36;;;;;;;;;;;23.70;48.30;;;;;;4938817;28;45531;-64
2022/09/14 05:16:05;;;;;;;;;;;23.70;48.40;;;;;;4937706;28;45200;-64
2022/09/14 05:18:31;;;;;;;;;;;23.70;48.50;;;;;;4924012;28;45422;-63
2022/09/14 05:20:59;;;;;;;;;;;23.70;48.50;;;;;;4940058;28;46635;-64
2022/09/14 05:23:24;;;;;;;;;;;23.70;48.60;;;;;;4939961;28;44920;-65
2022/09/14 05:25:53;;;;;;;;;;;23.70;48.60;;;;;;4943597;28;45358;-64
2022/09/14 05:28:18;;;;;;;;;;;23.70;48.60;;;;;;4939951;28;45107;-64
2022/09/14 05:30:43;;;;;;;;;;;23.70;48.50;;;;;;4931934;28;46011;-66
2022/09/14 05:33:09;;;;;;;;;;;23.70;49.10;;;;;;4938748;28;44635;-65
2022/09/14 05:35:34;;;;;;;;;;;23.70;48.50;;;;;;4937051;28;45600;-64
2022/09/14 05:38:00;;;;;;;;;;;23.60;48.40;;;;;;4944153;28;45201;-65
2022/09/14 05:40:25;;;;;;;;;;;23.70;48.40;;;;;;4935372;28;47069;-64
2022/09/14 05:42:51;;;;;;;;;;;23.70;48.40;;;;;;4938635;28;45557;-63
2022/09/14 05:45:16;;;;;;;;;;;23.70;48.50;;;;;;4938981;28;45181;-64
2022/09/14 05:47:42;;;;;;;;;;;23.70;48.60;;;;;;4938939;28;45020;-63
2022/09/14 05:50:07;;;;;;;;;;;23.70;48.70;;;;;;4940369;28;44928;-64
2022/09/14 05:52:33;;;;;;;;;;;23.60;48.60;;;;;;4932344;28;45464;-66
2022/09/14 05:54:58;;;;;;;;;;;23.60;48.70;;;;;;4938995;28;45352;-63
2022/09/14 05:57:24;;;;;;;;;;;23.70;48.80;;;;;;4936713;28;44784;-64
2022/09/14 05:59:49;;;;;;;;;;;23.70;49.30;;;;;;4940227;28;45122;-66
2022/09/14 06:02:15;;;;;;;;;;;23.60;48.70;;;;;;4938888;28;44713;-64
2022/09/14 06:04:40;;;;;;;;;;;23.60;48.90;;;;;;4939199;28;45130;-64
2022/09/14 06:07:06;;;;;;;;;;;23.70;48.80;;;;;;4933260;28;45557;-64
2022/09/14 06:09:31;;;;;;;;;;;23.60;48.80;;;;;;4920260;28;45291;-66
2022/09/14 06:11:57;;;;;;;;;;;23.70;48.90;;;;;;4918921;28;45530;-64
2022/09/14 06:14:22;;;;;;;;;;;23.60;48.90;;;;;;4939161;28;45041;-63
2022/09/14 06:16:48;;;;;;;;;;;23.70;48.70;;;;;;4937879;28;45261;-65
2022/09/14 06:19:14;;;;;;;;;;;23.60;48.70;;;;;;4927060;28;46898;-65
2022/09/14 06:21:40;;;;;;;;;;;23.60;48.70;;;;;;4930697;28;45095;-65
2022/09/14 06:24:05;;;;;;;;;;;23.70;49.00;;;;;;4929256;28;45600;-63
2022/09/14 06:26:31;;;;;;;;;;;23.70;48.90;;;;;;4938899;28;44937;-64
2022/09/14 06:28:56;;;;;;;;;;;23.70;48.90;;;;;;4938471;28;45179;-65
2022/09/14 06:31:23;;;;;;;;;;;23.70;48.80;;;;;;4942703;28;45530;-64
2022/09/14 06:33:49;;;;;;;;;;;23.70;48.90;;;;;;4936898;28;45442;-63
2022/09/14 06:36:16;;;;;;;;;;;23.70;48.80;;;;;;4921545;28;45157;-63
2022/09/14 06:38:42;;;;;;;;;;;23.80;48.80;;;;;;4917568;28;45946;-65
2022/09/14 06:41:08;;;;;;;;;;;23.80;48.80;;;;;;4933544;28;45024;-63
2022/09/14 06:43:35;;;;;;;;;;;23.80;48.70;;;;;;4937453;28;45610;-64
2022/09/14 06:46:04;;;;;;;;;;;23.80;48.60;;;;;;4918746;28;45060;-63
2022/09/14 06:48:34;;;;;;;;;;;23.80;48.60;;;;;;4920612;28;48429;-64
2022/09/14 06:51:00;;;;;;;;;;;23.80;48.50;;;;;;4936250;28;45005;-65
2022/09/14 06:53:25;;;;;;;;;;;23.80;48.70;;;;;;4940447;28;45156;-67
2022/09/14 06:55:51;;;;;;;;;;;23.80;48.60;;;;;;4937529;28;45193;-65
2022/09/14 06:58:17;;;;;;;;;;;23.80;48.60;;;;;;4921703;28;46100;-65
2022/09/14 07:00:42;;;;;;;;;;;23.90;48.70;;;;;;4920518;28;45524;-64
2022/09/14 07:03:08;;;;;;;;;;;23.90;48.70;;;;;;4938185;28;45039;-64
2022/09/14 07:05:33;;;;;;;;;;;23.90;48.70;;;;;;4923993;28;45353;-63
2022/09/14 07:07:59;;;;;;;;;;;23.90;48.70;;;;;;4945478;28;46079;-67
2022/09/14 07:10:27;;;;;;;;;;;24.00;48.90;;;;;;4936618;28;45209;-63
2022/09/14 07:12:53;;;;;;;;;;;23.90;49.10;;;;;;4939267;28;45246;-65
2022/09/14 07:15:19;;;;;;;;;;;23.90;48.90;;;;;;4939024;28;44888;-64
2022/09/14 07:17:44;;;;;;;;;;;24.00;49.10;;;;;;4930924;28;45292;-64
2022/09/14 07:20:10;;;;;;;;;;;24.00;49.00;;;;;;4936516;28;45508;-63
2022/09/14 07:22:35;;;;;;;;;;;24.00;48.70;;;;;;4934534;28;45240;-67
2022/09/14 07:25:01;;;;;;;;;;;24.00;48.90;;;;;;4939480;28;45356;-64
2022/09/14 07:27:26;;;;;;;;;;;24.00;48.90;;;;;;4929957;28;45977;-60
2022/09/14 07:29:52;;;;;;;;;;;24.00;48.90;;;;;;4933942;28;45392;-60
2022/09/14 07:32:18;;;;;;;;;;;24.00;48.80;;;;;;4936852;28;45439;-60
2022/09/14 07:34:43;;;;;;;;;;;24.10;48.90;;;;;;4936407;28;45276;-56
2022/09/14 07:37:09;;;;;;;;;;;24.10;48.80;;;;;;4932919;28;45553;-57
2022/09/14 07:39:34;;;;;;;;;;;24.10;48.80;;;;;;4935545;28;45419;-58
2022/09/14 07:42:00;;;;;;;;;;;24.10;48.80;;;;;;4931496;28;45655;-61
2022/09/14 07:44:25;;;;;;;;;;;24.10;48.80;;;;;;4938806;28;45387;-60
2022/09/14 07:46:51;;;;;;;;;;;24.00;48.80;;;;;;4937214;28;45903;-64
2022/09/14 07:49:16;;;;;;;;;;;24.10;48.90;;;;;;4944084;28;45272;-60
2022/09/14 07:51:42;;;;;;;;;;;24.10;48.90;;;;;;4936209;28;45792;-62
2022/09/14 07:54:10;;;;;;;;;;;24.10;49.50;;;;;;4936735;28;45690;-59
2022/09/14 07:56:35;;;;;;;;;;;24.10;48.80;;;;;;4931760;28;46181;-62
2022/09/14 07:59:01;;;;;;;;;;;24.10;48.80;;;;;;4937475;28;45138;-59
2022/09/14 08:01:28;;;;;;;;;;;24.10;48.90;;;;;;4936195;28;45476;-59
2022/09/14 08:03:54;;;;;;;;;;;24.10;48.90;;;;;;4933969;28;45298;-59
2022/09/14 08:06:21;;;;;;;;;;;24.10;49.00;;;;;;4937209;28;45374;-56
2022/09/14 08:08:47;;;;;;;;;;;24.10;48.90;;;;;;4937170;28;45029;-61
2022/09/14 08:11:12;;;;;;;;;;;24.10;48.90;;;;;;4935791;28;45455;-60
2022/09/14 08:13:39;;;;;;;;;;;24.10;48.80;;;;;;4936141;28;46578;-60
2022/09/14 08:16:05;;;;;;;;;;;24.10;48.80;;;;;;4930964;28;46210;-66
2022/09/14 08:18:30;;;;;;;;;;;24.20;48.80;;;;;;4936257;28;45454;-60
2022/09/14 08:20:56;;;;;;;;;;;24.20;48.90;;;;;;4934622;28;44979;-58
2022/09/14 08:23:22;;;;;;;;;;;24.20;49.50;;;;;;4936241;28;45405;-56
2022/09/14 08:25:47;;;;;;;;;;;24.10;48.90;;;;;;4941819;28;46125;-62
2022/09/14 08:28:13;;;;;;;;;;;24.10;48.80;;;;;;4937096;28;45496;-58
2022/09/14 08:30:38;;;;;;;;;;;24.20;48.90;;;;;;4935921;28;45495;-60
2022/09/14 08:33:04;;;;;;;;;;;24.20;48.80;;;;;;4934054;28;44849;-61
2022/09/14 08:35:29;;;;;;;;;;;24.20;48.80;;;;;;4936999;28;45988;-62
2022/09/14 08:37:55;;;;;;;;;;;24.20;48.70;;;;;;4923165;28;45439;-62
2022/09/14 08:40:20;;;;;;;;;;;24.20;48.80;;;;;;4935883;28;45562;-63
2022/09/14 08:42:46;;;;;;;;;;;24.20;48.80;;;;;;4916124;28;45421;-63
2022/09/14 08:45:14;;;;;;;;;;;24.20;48.80;;;;;;4923067;28;45836;-60
2022/09/14 08:47:40;;;;;;;;;;;24.20;48.80;;;;;;4931723;28;45721;-61
2022/09/14 08:50:09;;;;;;;;;;;24.20;48.80;;;;;;4936547;28;45497;-60
2022/09/14 08:52:38;;;;;;;;;;;24.20;48.70;;;;;;4928803;28;45161;-60
2022/09/14 08:55:16;;;;;;;;;;;24.20;48.80;;;;;;4936088;28;46602;-59
2022/09/14 08:57:47;;;;;;;;;;;24.30;48.80;;;;;;4935701;28;45556;-60
2022/09/14 09:00:14;;;;;;;;;;;24.20;48.70;;;;;;4929333;28;45092;-59
2022/09/14 09:02:42;;;;;;;;;;;24.30;48.90;;;;;;4921982;28;45608;-61
2022/09/14 09:05:13;;;;;;;;;;;24.20;48.80;;;;;;4924873;28;45437;-59
2022/09/14 09:07:49;;;;;;;;;;;24.30;48.80;;;;;;4939390;28;45519;-62
2022/09/14 09:10:15;;;;;;;;;;;24.30;48.80;;;;;;4940069;28;45194;-60
2022/09/14 09:12:47;;;;;;;;;;;24.30;48.80;;;;;;4942059;28;45191;-61
2022/09/14 09:15:13;;;;;;;;;;;24.30;48.70;;;;;;4937183;28;45316;-59
2022/09/14 09:17:39;;;;;;;;;;;24.30;48.70;;;;;;4934275;28;45267;-61
2022/09/14 09:20:08;;;;;;;;;;;24.30;48.70;;;;;;4927173;28;45292;-63
2022/09/14 09:22:35;;;;;;;;;;;24.30;48.60;;;;;;4923424;28;45440;-59
2022/09/14 09:25:01;;;;;;;;;;;24.30;48.60;;;;;;4922156;28;45961;-60
2022/09/14 09:27:27;;;;;;;;;;;24.40;48.50;;;;;;4914343;28;45413;-59
2022/09/14 09:29:52;;;;;;;;;;;24.40;48.60;;;;;;4937936;28;45488;-61
2022/09/14 09:32:19;;;;;;;;;;;24.40;48.60;;;;;;4937930;28;45718;-63
2022/09/14 09:34:45;;;;;;;;;;;24.40;48.60;;;;;;4940081;28;46275;-60
2022/09/14 09:37:12;;;;;;;;;;;24.40;48.50;;;;;;4919838;28;45316;-61
2022/09/14 09:39:38;;;;;;;;;;;24.40;48.50;;;;;;4940242;28;44973;-61
2022/09/14 09:42:07;;;;;;;;;;;24.40;48.50;;;;;;4933972;28;45168;-60
2022/09/14 09:44:51;;;;;;;;;;;24.40;48.50;;;;;;4920278;28;47101;-60
2022/09/14 09:47:17;;;;;;;;;;;24.40;48.40;;;;;;4935270;28;45317;-62
2022/09/14 09:49:43;;;;;;;;;;;24.40;48.40;;;;;;4935220;28;45449;-60
2022/09/14 09:52:13;;;;;;;;;;;24.40;48.40;;;;;;4935773;28;45537;-62
2022/09/14 09:54:39;;;;;;;;;;;24.40;48.40;;;;;;4920662;28;46317;-64
2022/09/14 09:57:28;;;;;;;;;;;24.40;48.40;;;;;;4933384;28;45535;-61
2022/09/14 10:00:12;;;;;;;;;;;24.40;48.50;;;;;;4930564;28;45403;-62
2022/09/14 10:02:37;;;;;;;;;;;24.40;48.60;;;;;;4936198;28;45228;-64
2022/09/14 10:05:04;;;;;;;;;;;24.50;48.60;;;;;;4912476;28;45503;-62
2022/09/14 10:07:30;;;;;;;;;;;24.40;48.80;;;;;;4934847;28;44976;-62
2022/09/14 10:10:00;;;;;;;;;;;24.40;48.80;;;;;;4941075;28;45197;-62
2022/09/14 10:12:25;;;;;;;;;;;24.40;48.80;;;;;;4919577;28;44754;-58
2022/09/14 10:15:01;;;;;;;;;;;24.40;48.60;;;;;;4898688;28;46968;-60
2022/09/14 10:17:27;;;;;;;;;;;24.40;48.50;;;;;;4935371;28;45514;-61
2022/09/14 10:19:52;;;;;;;;;;;24.40;48.50;;;;;;4938274;28;44733;-61
2022/09/14 10:22:28;;;;;;;;;;;24.40;48.50;;;;;;4922198;28;45261;-58
2022/09/14 10:24:55;;;;;;;;;;;24.40;48.50;;;;;;4916949;28;46225;-59
2022/09/14 10:27:29;;;;;;;;;;;24.40;48.50;;;;;;4934313;28;45385;-64
2022/09/14 10:29:55;;;;;;;;;;;24.40;48.60;;;;;;4935041;28;45821;-59
2022/09/14 10:32:22;;;;;;;;;;;24.40;48.70;;;;;;4930061;28;45382;-62
2022/09/14 10:34:50;;;;;;;;;;;24.40;48.90;;;;;;4922755;28;46003;-60
2022/09/14 10:37:30;;;;;;;;;;;24.40;48.80;;;;;;4931308;28;45589;-61
2022/09/14 10:40:32;;;;;;;;;;;24.40;48.80;;;;;;4929447;28;45502;-59
2022/09/14 10:43:02;;;;;;;;;;;24.40;48.90;;;;;;4896452;28;45376;-61
2022/09/14 10:45:30;;;;;;;;;;;24.40;49.30;;;;;;4926754;28;46781;-60
2022/09/14 10:48:14;;;;;;;;;;;24.40;49.20;;;;;;4921985;28;45561;-58
2022/09/14 10:50:59;;;;;;;;;;;24.40;48.80;;;;;;4932043;28;44937;-61
2022/09/14 10:53:30;;;;;;;;;;;24.40;48.80;;;;;;4937092;28;45268;-60
2022/09/14 10:56:00;;;;;;;;;;;24.40;48.80;;;;;;4936826;28;46787;-61
2022/09/14 10:58:37;;;;;;;;;;;24.40;48.90;;;;;;4930781;28;44659;-61
2022/09/14 11:01:21;;;;;;;;;;;24.40;48.90;;;;;;4925634;28;44925;-61
2022/09/14 11:03:47;;;;;;;;;;;24.40;48.90;;;;;;4937002;28;45642;-59
2022/09/14 11:06:33;;;;;;;;;;;24.40;48.90;;;;;;4938319;28;45262;-60
2022/09/14 11:09:00;;;;;;;;;;;24.40;48.90;;;;;;4937577;28;45241;-56
2022/09/14 11:11:37;;;;;;;;;;;24.40;49.10;;;;;;4924403;28;44954;-60
2022/09/14 11:14:35;;;;;;;;;;;24.40;49.00;;;;;;4924950;28;44738;-61
2022/09/14 11:17:21;;;;;;;;;;;24.50;49.10;;;;;;4895188;28;45921;-60
2022/09/14 11:19:50;;;;;;;;;;;24.40;49.20;;;;;;4929591;28;45230;-57
2022/09/14 11:22:31;;;;;;;;;;;24.50;49.20;;;;;;4939583;28;45105;-56
2022/09/14 11:25:04;;;;;;;;;;;24.50;49.20;;;;;;4941158;28;45193;-60
2022/09/14 11:27:47;;;;;;;;;;;24.50;49.20;;;;;;4940351;28;47087;-57
2022/09/14 11:30:14;;;;;;;;;;;24.50;49.20;;;;;;4937165;28;45276;-57
2022/09/14 11:32:49;;;;;;;;;;;24.50;49.70;;;;;;4937343;28;44650;-58
2022/09/14 11:35:15;;;;;;;;;;;24.50;49.10;;;;;;4939974;28;45176;-60
2022/09/14 11:37:43;;;;;;;;;;;24.50;49.10;;;;;;4944062;28;46144;-56
2022/09/14 11:40:28;;;;;;;;;;;24.50;49.10;;;;;;4939211;28;45193;-60
2022/09/14 11:42:56;;;;;;;;;;;24.50;49.10;;;;;;4924268;28;45187;-60
2022/09/14 11:45:48;;;;;;;;;;;24.50;49.10;;;;;;4937969;28;44835;-59
2022/09/14 11:48:25;;;;;;;;;;;24.60;49.10;;;;;;4936676;28;46137;-60
2022/09/14 11:50:50;;;;;;;;;;;24.60;49.10;;;;;;4936249;28;45809;-58
2022/09/14 11:53:16;;;;;;;;;;;24.60;49.00;;;;;;4930273;28;44806;-61
2022/09/14 11:55:45;;;;;;;;;;;24.60;49.00;;;;;;4941119;28;46036;-59
2022/09/14 11:58:15;;;;;;;;;;;24.60;49.00;;;;;;4936734;28;46140;-59
2022/09/14 12:00:59;;;;;;;;;;;24.60;49.10;;;;;;4924413;28;44667;-60
2022/09/14 12:03:43;;;;;;;;;;;24.60;49.00;;;;;;4941136;28;45479;-59
2022/09/14 12:06:27;;;;;;;;;;;24.60;49.10;;;;;;4936533;28;45205;-60
2022/09/14 12:08:52;;;;;;;;;;;24.70;49.10;;;;;;4941568;28;45573;-58
2022/09/14 12:11:44;;;;;;;;;;;24.70;49.00;;;;;;4928880;28;45010;-56
2022/09/14 12:14:22;;;;;;;;;;;24.60;49.00;;;;;;4934931;28;45229;-60
2022/09/14 12:17:14;;;;;;;;;;;24.70;49.00;;;;;;4936984;28;45549;-60
2022/09/14 12:19:39;;;;;;;;;;;24.70;49.00;;;;;;4902525;28;47014;-61
2022/09/14 12:22:26;;;;;;;;;;;24.70;48.90;;;;;;4918201;28;45196;-61
2022/09/14 12:25:07;;;;;;;;;;;24.70;49.00;;;;;;4935934;28;44711;-62
2022/09/14 12:27:36;;;;;;;;;;;24.70;49.10;;;;;;4940290;28;44741;-59
2022/09/14 12:30:22;;;;;;;;;;;24.70;49.00;;;;;;4927801;28;46313;-63
2022/09/14 12:32:48;;;;;;;;;;;24.70;49.10;;;;;;4899280;28;45176;-60
2022/09/14 12:35:32;;;;;;;;;;;24.70;49.10;;;;;;4942888;28;45219;-60
2022/09/14 12:37:57;;;;;;;;;;;24.70;49.20;;;;;;4940523;28;45499;-60
2022/09/14 12:40:33;;;;;;;;;;;24.80;49.20;;;;;;4938571;28;46896;-61
2022/09/14 12:43:17;;;;;;;;;;;24.80;49.10;;;;;;4947880;28;45316;-60
2022/09/14 12:45:46;;;;;;;;;;;24.80;49.20;;;;;;4938227;28;45254;-60
2022/09/14 12:48:12;;;;;;;;;;;24.80;49.10;;;;;;4942473;28;45430;-60
2022/09/14 12:50:37;;;;;;;;;;;24.80;49.30;;;;;;4906739;28;46424;-59
2022/09/14 12:53:07;;;;;;;;;;;24.80;49.20;;;;;;4925520;28;45197;-61
2022/09/14 12:55:32;;;;;;;;;;;24.80;49.20;;;;;;4938470;28;44762;-61
2022/09/14 12:58:08;;;;;;;;;;;24.80;49.10;;;;;;4941982;28;47231;-61
2022/09/14 13:00:43;;;;;;;;;;;24.80;49.20;;;;;;4922002;28;46879;-60
2022/09/14 13:03:21;;;;;;;;;;;24.80;49.10;;;;;;4937507;28;45244;-61
2022/09/14 13:05:46;;;;;;;;;;;24.80;49.30;;;;;;4921645;28;45270;-61
2022/09/14 13:08:12;;;;;;;;;;;24.80;49.20;;;;;;4931280;28;45421;-60
2022/09/14 13:10:47;;;;;;;;;;;24.90;49.30;;;;;;4920505;28;46930;-60
2022/09/14 13:13:17;;;;;;;;;;;24.90;49.40;;;;;;4926567;28;45308;-63
2022/09/14 13:15:52;;;;;;;;;;;24.90;49.40;;;;;;4939740;28;45257;-60
2022/09/14 13:18:18;;;;;;;;;;;24.90;49.30;;;;;;4926638;28;45320;-59
2022/09/14 13:20:56;;;;;;;;;;;24.90;49.20;;;;;;4939447;28;46927;-60
2022/09/14 13:23:22;;;;;;;;;;;24.90;49.30;;;;;;4941536;28;45155;-60
2022/09/14 13:25:48;;;;;;;;;;;24.90;49.40;;;;;;4939799;28;45375;-63
2022/09/14 13:28:14;;;;;;;;;;;24.90;49.40;;;;;;4937498;28;45718;-57
2022/09/14 13:30:43;;;;;;;;;;;25.00;49.50;;;;;;4942075;28;46128;-54
2022/09/14 13:33:15;;;;;;;;;;;25.00;49.60;;;;;;4945132;28;44912;-59
2022/09/14 13:35:50;;;;;;;;;;;25.00;49.50;;;;;;4939701;28;45538;-62
2022/09/14 13:38:17;;;;;;;;;;;25.00;49.60;;;;;;4940472;28;44826;-62
2022/09/14 13:40:43;;;;;;;;;;;25.00;49.40;;;;;;4920503;28;47000;-59
2022/09/14 13:43:08;;;;;;;;;;;25.00;49.30;;;;;;4929542;28;44950;-58
2022/09/14 13:45:35;;;;;;;;;;;25.00;49.30;;;;;;4924387;28;46045;-60
2022/09/14 13:48:01;;;;;;;;;;;25.00;49.30;;;;;;4939039;28;45293;-60
2022/09/14 13:50:26;;;;;;;;;;;25.00;49.40;;;;;;4921970;28;45538;-61
2022/09/14 13:52:52;;;;;;;;;;;25.00;49.40;;;;;;4949042;28;45277;-60
2022/09/14 13:55:17;;;;;;;;;;;25.00;49.50;;;;;;4944723;28;45146;-66
2022/09/14 13:58:02;;;;;;;;;;;25.00;49.40;;;;;;4941761;28;45260;-57
2022/09/14 14:00:27;;;;;;;;;;;25.10;49.50;;;;;;4941004;28;45980;-57
2022/09/14 14:02:57;;;;;;;;;;;25.10;49.40;;;;;;4926274;28;45187;-61
2022/09/14 14:05:23;;;;;;;;;;;25.10;49.40;;;;;;4940198;28;46284;-61
2022/09/14 14:07:49;;;;;;;;;;;25.10;49.70;;;;;;4941409;28;45245;-61
2022/09/14 14:10:21;;;;;;;;;;;25.10;49.80;;;;;;4940773;28;46196;-60
2022/09/14 14:12:47;;;;;;;;;;;25.10;49.70;;;;;;4941881;28;45353;-60
2022/09/14 14:15:13;;;;;;;;;;;25.10;49.50;;;;;;4922424;28;45335;-61
2022/09/14 14:17:39;;;;;;;;;;;25.10;49.50;;;;;;4940535;28;45451;-60
2022/09/14 14:20:23;;;;;;;;;;;25.10;49.40;;;;;;4921482;28;45722;-60
2022/09/14 14:22:55;;;;;;;;;;;25.10;49.60;;;;;;4920842;28;45348;-61
2022/09/14 14:25:30;;;;;;;;;;;25.10;49.50;;;;;;4942462;28;45253;-60
2022/09/14 14:28:00;;;;;;;;;;;25.10;49.60;;;;;;4949224;28;45321;-60
2022/09/14 14:30:27;;;;;;;;;;;25.10;49.60;;;;;;4919580;28;46159;-61
2022/09/14 14:32:53;;;;;;;;;;;25.10;49.60;;;;;;4940155;28;45221;-60
2022/09/14 14:35:23;;;;;;;;;;;25.10;49.60;;;;;;4939358;28;45376;-60
2022/09/14 14:37:49;;;;;;;;;;;25.10;49.60;;;;;;4936335;28;45535;-59
2022/09/14 14:40:14;;;;;;;;;;;25.10;49.80;;;;;;4934908;28;46134;-60
2022/09/14 14:42:40;;;;;;;;;;;25.20;49.90;;;;;;4940350;28;45186;-60
2022/09/14 14:45:05;;;;;;;;;;;25.20;50.20;;;;;;4940509;28;45251;-59
2022/09/14 14:47:32;;;;;;;;;;;25.20;50.50;;;;;;4940132;28;45329;-60
2022/09/14 14:49:58;;;;;;;;;;;25.20;50.20;;;;;;4940491;28;46324;-60
2022/09/14 14:52:23;;;;;;;;;;;25.20;50.60;;;;;;4930235;28;45121;-61
2022/09/14 14:54:49;;;;;;;;;;;25.10;50.10;;;;;;4942914;28;44951;-61
2022/09/14 14:57:14;;;;;;;;;;;25.10;50.20;;;;;;4941399;28;45838;-60
2022/09/14 14:59:40;;;;;;;;;;;25.10;50.30;;;;;;4930007;28;47125;-62
2022/09/14 15:02:05;;;;;;;;;;;25.20;50.30;;;;;;4933229;28;45885;-61
2022/09/14 15:04:31;;;;;;;;;;;25.10;50.30;;;;;;4936056;28;45167;-58
2022/09/14 15:06:57;;;;;;;;;;;25.20;50.40;;;;;;4933350;28;45305;-61
2022/09/14 15:09:28;;;;;;;;;;;25.10;50.70;;;;;;4933105;28;45971;-59
2022/09/14 15:11:53;;;;;;;;;;;25.10;50.70;;;;;;4926087;28;45233;-61
2022/09/14 15:14:19;;;;;;;;;;;25.10;51.20;;;;;;4930384;28;45256;-61
2022/09/14 15:16:45;;;;;;;;;;;25.10;50.80;;;;;;4930422;28;45563;-60
2022/09/14 15:19:10;;;;;;;;;;;25.10;50.90;;;;;;4931711;28;45861;-61
2022/09/14 15:21:36;;;;;;;;;;;25.10;50.80;;;;;;4932501;28;45172;-61
2022/09/14 15:24:02;;;;;;;;;;;25.10;50.50;;;;;;4929235;28;45095;-60
2022/09/14 15:26:27;;;;;;;;;;;25.10;50.80;;;;;;4931130;28;45478;-58
2022/09/14 15:28:53;;;;;;;;;;;25.10;50.80;;;;;;4929698;28;45554;-60
2022/09/14 15:31:18;;;;;;;;;;;25.10;50.60;;;;;;4932800;28;45876;-59
2022/09/14 15:33:44;;;;;;;;;;;25.10;50.70;;;;;;4930637;28;45308;-58
2022/09/14 15:36:09;;;;;;;;;;;25.10;50.10;;;;;;4926133;28;45466;-58
2022/09/14 15:38:35;;;;;;;;;;;25.10;51.00;;;;;;4928801;28;46234;-60
2022/09/14 15:41:00;;;;;;;;;;;25.00;50.90;;;;;;4932295;28;46142;-58
2022/09/14 15:43:26;;;;;;;;;;;25.10;51.10;;;;;;4931874;28;45700;-58
2022/09/14 15:45:52;;;;;;;;;;;25.00;51.30;;;;;;4933499;28;45392;-59
2022/09/14 15:48:17;;;;;;;;;;;25.00;51.30;;;;;;4936319;28;46049;-57
2022/09/14 15:50:43;;;;;;;;;;;25.00;51.10;;;;;;4917231;28;45169;-61
2022/09/14 15:53:12;;;;;;;;;;;25.00;51.00;;;;;;4936284;28;46702;-59
2022/09/14 15:55:41;;;;;;;;;;;25.00;50.90;;;;;;4935230;28;45478;-58
2022/09/14 15:58:06;;;;;;;;;;;24.90;50.90;;;;;;4925518;28;46030;-61
2022/09/14 16:00:32;;;;;;;;;;;24.90;51.00;;;;;;4931112;28;45278;-62
2022/09/14 16:02:58;;;;;;;;;;;24.90;51.10;;;;;;4934760;28;45526;-62
2022/09/14 16:05:23;;;;;;;;;;;24.90;51.00;;;;;;4936653;28;45286;-58
2022/09/14 16:07:53;;;;;;;;;;;24.90;50.90;;;;;;4939333;28;46103;-60
2022/09/14 16:10:18;;;;;;;;;;;24.90;50.80;;;;;;4938087;28;45657;-61
2022/09/14 16:12:44;;;;;;;;;;;24.90;50.80;;;;;;4938495;28;45266;-60
2022/09/14 16:15:09;;;;;;;;;;;24.90;50.70;;;;;;4938822;28;45186;-58
2022/09/14 16:17:35;;;;;;;;;;;24.90;50.70;;;;;;4942109;28;45231;-59
2022/09/14 16:20:01;;;;;;;;;;;24.90;50.80;;;;;;4941496;28;45038;-57
2022/09/14 16:22:27;;;;;;;;;;;24.90;50.70;;;;;;4944714;28;45499;-60
2022/09/14 16:24:52;;;;;;;;;;;24.90;50.70;;;;;;4941870;28;45961;-62
2022/09/14 16:27:18;;;;;;;;;;;24.80;50.80;;;;;;4943403;28;45983;-58
2022/09/14 16:29:43;;;;;;;;;;;24.80;50.80;;;;;;4939056;28;45523;-60
2022/09/14 16:32:09;;;;;;;;;;;24.80;50.80;;;;;;4944673;28;45299;-60
2022/09/14 16:34:34;;;;;;;;;;;24.80;50.80;;;;;;4943040;28;45317;-59
2022/09/14 16:37:00;;;;;;;;;;;24.80;50.70;;;;;;4925433;28;45843;-60
2022/09/14 16:39:26;;;;;;;;;;;24.80;50.60;;;;;;4943401;28;45306;-62
2022/09/14 16:41:52;;;;;;;;;;;24.80;50.60;;;;;;4939352;28;45184;-61
2022/09/14 16:44:19;;;;;;;;;;;24.80;50.60;;;;;;4946305;28;45167;-61
2022/09/14 16:46:44;;;;;;;;;;;24.80;50.70;;;;;;4941002;28;45002;-60
2022/09/14 16:49:09;;;;;;;;;;;24.80;50.70;;;;;;4941977;28;45371;-59
2022/09/14 16:51:35;;;;;;;;;;;24.80;50.70;;;;;;4942372;28;45531;-61
2022/09/14 16:54:01;;;;;;;;;;;24.70;50.70;;;;;;4943483;28;45278;-61
2022/09/14 16:56:28;;;;;;;;;;;24.70;50.60;;;;;;4941445;28;46545;-59
2022/09/14 16:58:54;;;;;;;;;;;24.80;50.70;;;;;;4943756;28;45209;-60
2022/09/14 17:01:19;;;;;;;;;;;24.70;50.70;;;;;;4942607;28;45686;-63
2022/09/14 17:03:46;;;;;;;;;;;24.70;50.70;;;;;;4942247;28;45419;-61
2022/09/14 17:06:16;;;;;;;;;;;24.70;50.60;;;;;;4940210;28;45901;-58
2022/09/14 17:08:41;;;;;;;;;;;24.70;50.60;;;;;;4943193;28;45028;-62
2022/09/14 17:11:07;;;;;;;;;;;24.70;50.60;;;;;;4940747;28;45661;-59
2022/09/14 17:13:32;;;;;;;;;;;24.70;50.70;;;;;;4940954;28;45874;-58
2022/09/14 17:15:59;;;;;;;;;;;24.70;50.60;;;;;;4936256;28;46952;-58
2022/09/14 17:18:24;;;;;;;;;;;24.70;50.70;;;;;;4938079;28;45376;-60
2022/09/14 17:20:51;;;;;;;;;;;24.70;50.60;;;;;;4936594;28;45503;-58
2022/09/14 17:23:17;;;;;;;;;;;24.70;50.60;;;;;;4938858;28;45536;-61